< < Back
Terminal Aerodrome Forecast


Current Version              Previous Versions:   1  2  3  4  5  6  7  8  9  

Terminal Aerodrome Forecast

381
FTUS44 KBMX 022320
TAFTCL
TAF
KTCL 022320Z 0300/0324 34003KT P6SM BKN200=

Latest METAR

268
SAUS70 KWBC 041000 RRJ
MTRTCL
METAR KTCL 040953Z AUTO 00000KT 1SM BR CLR 22/21 A2998 RMK AO2 SLP149
T02170211


USA.gov is the U.S. government's official web portal to all federal, state and local government web resources and services.